Time;durP1;ratioP1;P1;durP2;ratioP2;P2;SDS_P1;SDS_P2;PMS_P1;PMS_P2;Temp;Humidity;BMP_temperature;BMP_pressure;BME280_temperature;BME280_humidity;BME280_pressure;Samples;Min_cycle;Max_cycle;Signal;HPM_P1;HPM_P2
2021/12/28 12:26:02;;;;;;;;;4.00;2.67;;;;;13.49;60.65;99551.19;5088447;27;45446;-68
2021/12/28 12:28:35;;;;;;;;;9.33;2.00;;;;;13.66;61.34;99553.31;5072682;28;45375;-68
2021/12/28 12:31:02;;;;;;;;;4.00;1.00;;;;;13.81;60.28;99566.03;5071683;28;45556;-69
2021/12/28 12:33:43;;;;;;;;;7.00;3.67;;;;;13.95;59.91;99553.31;5074174;28;45281;-69
2021/12/28 12:36:18;;;;;;;;;3.00;1.00;;;;;14.19;59.11;99566.63;5075255;28;46562;-68
2021/12/28 12:38:46;;;;;;;;;2.67;2.67;;;;;14.24;58.22;99529.59;5075364;28;45259;-68
2021/12/28 12:41:16;;;;;;;;;3.33;2.00;;;;;14.53;56.42;99552.34;5075516;28;45523;-68
2021/12/28 12:43:46;;;;;;;;;5.00;2.00;;;;;14.56;57.73;99534.69;5073016;28;45353;-69
2021/12/28 12:46:30;;;;;;;;;3.00;1.33;;;;;14.74;57.88;99548.19;5070874;28;46040;-68
2021/12/28 12:48:59;;;;;;;;;5.00;1.33;;;;;14.83;57.50;99545.22;5070602;28;45389;-68
2021/12/28 12:51:24;;;;;;;;;2.00;2.00;;;;;15.06;57.28;99540.00;5075108;28;45478;-68
2021/12/28 12:54:02;;;;;;;;;2.67;1.67;;;;;15.17;56.38;99552.81;5073467;28;45444;-69
2021/12/28 12:56:35;;;;;;;;;2.00;1.00;;;;;15.24;55.60;99535.84;5069596;27;48006;-69
2021/12/28 12:59:05;;;;;;;;;1.00;1.00;;;;;15.24;55.65;99540.28;5070867;28;45385;-68
2021/12/28 13:01:40;;;;;;;;;3.00;2.00;;;;;15.37;55.39;99540.66;5071342;28;45518;-67
2021/12/28 13:04:24;;;;;;;;;2.00;1.00;;;;;15.42;55.44;99536.06;5073882;28;45388;-68
2021/12/28 13:07:01;;;;;;;;;4.33;1.00;;;;;15.45;56.19;99536.00;5070357;28;46251;-69
2021/12/28 13:09:28;;;;;;;;;3.67;2.00;;;;;15.44;54.68;99518.41;5069128;28;45842;-69
2021/12/28 13:11:54;;;;;;;;;4.33;3.00;;;;;15.40;55.61;99530.00;5070737;28;45688;-69
2021/12/28 13:14:20;;;;;;;;;3.33;1.00;;;;;15.53;55.33;99548.88;5055442;28;45515;-68
2021/12/28 13:17:00;;;;;;;;;5.33;2.00;;;;;15.46;55.05;99550.88;5070034;28;45399;-69
2021/12/28 13:19:26;;;;;;;;;4.00;2.00;;;;;15.53;55.14;99570.00;5070107;27;45854;-69
2021/12/28 13:22:04;;;;;;;;;3.00;2.00;;;;;15.53;55.00;99559.44;5070176;28;45586;-68
2021/12/28 13:24:31;;;;;;;;;3.00;2.00;;;;;15.57;54.88;99553.13;5079250;27;45294;-69
2021/12/28 13:26:59;;;;;;;;;6.00;1.00;;;;;15.55;54.78;99547.06;5093489;27;45363;-69
2021/12/28 13:29:34;;;;;;;;;5.33;1.33;;;;;15.60;54.75;99545.94;5072326;27;45459;-69
2021/12/28 13:32:40;;;;;;;;;2.00;2.00;;;;;15.55;54.25;99542.63;5093651;27;45483;-69
2021/12/28 13:35:18;;;;;;;;;2.33;1.00;;;;;15.48;54.85;99541.13;5073635;27;45630;-68
2021/12/28 13:37:50;;;;;;;;;3.67;3.00;;;;;15.44;54.96;99553.56;5080934;27;46514;-67
2021/12/28 13:40:30;;;;;;;;;6.67;2.00;;;;;15.34;54.20;99561.91;5081143;28;45333;-68
2021/12/28 13:42:58;;;;;;;;;3.00;1.67;;;;;15.22;54.66;99556.13;5077292;28;45614;-66
2021/12/28 13:45:32;;;;;;;;;2.00;1.00;;;;;15.10;55.13;99555.72;5076936;28;45447;-66
2021/12/28 13:48:01;;;;;;;;;3.67;2.33;;;;;14.94;54.89;99566.78;5076988;27;46726;-69
2021/12/28 13:50:28;;;;;;;;;2.00;1.33;;;;;14.81;54.64;99562.88;5076922;27;45412;-67
2021/12/28 13:52:57;;;;;;;;;9.67;1.00;;;;;14.60;54.71;99557.41;5077046;28;45402;-68
2021/12/28 13:55:29;;;;;;;;;2.33;1.00;;;;;14.44;55.34;99582.50;5077117;27;45291;-66
2021/12/28 13:57:55;;;;;;;;;2.00;1.00;;;;;14.26;55.89;99569.91;5076518;28;46285;-69
2021/12/28 14:00:24;;;;;;;;;4.33;1.67;;;;;14.20;56.32;99568.34;5076825;28;45320;-69
2021/12/28 14:02:59;;;;;;;;;3.33;1.33;;;;;14.05;57.22;99559.16;5076920;27;45503;-69
2021/12/28 14:05:27;;;;;;;;;2.67;2.00;;;;;14.04;57.05;99577.63;5078101;28;45439;-66
2021/12/28 14:07:53;;;;;;;;;3.33;1.00;;;;;13.90;56.70;99565.72;5080708;28;45393;-68
2021/12/28 14:10:19;;;;;;;;;3.00;1.00;;;;;13.83;57.49;99589.66;5075905;28;45374;-67
2021/12/28 14:13:10;;;;;;;;;3.33;1.00;;;;;13.53;60.51;99547.56;5077426;28;45376;-66
2021/12/28 14:16:10;;;;;;;;;0.33;0.33;;;;;13.80;58.01;99587.97;5077754;28;45264;-68
2021/12/28 14:18:46;;;;;;;;;4.33;2.00;;;;;13.75;58.02;99595.16;5041731;28;45355;-66
2021/12/28 14:21:14;;;;;;;;;2.67;1.00;;;;;13.69;58.32;99606.72;5075720;28;45635;-69
2021/12/28 14:23:41;;;;;;;;;1.00;1.00;;;;;13.58;58.54;99580.72;5075736;28;45483;-67
2021/12/28 14:26:14;;;;;;;;;4.33;1.67;;;;;13.52;58.63;99596.66;5076092;28;45406;-69
2021/12/28 14:28:41;;;;;;;;;1.00;1.00;;;;;13.34;58.89;99558.59;5075495;28;45284;-68
2021/12/28 14:31:25;;;;;;;;;1.33;1.00;;;;;13.39;58.44;99583.91;5075733;27;45448;-67
2021/12/28 14:33:59;;;;;;;;;1.67;1.67;;;;;13.37;59.40;99599.72;5075518;27;45497;-69
2021/12/28 14:36:31;;;;;;;;;4.33;0.33;;;;;13.30;60.07;99590.28;5075969;27;45683;-68
2021/12/28 14:39:20;;;;;;;;;7.67;1.33;;;;;13.28;60.08;99592.09;5074933;28;46125;-68
2021/12/28 14:42:02;;;;;;;;;2.67;0.33;;;;;13.18;59.61;99604.59;5075676;28;45507;-68
2021/12/28 14:44:32;;;;;;;;;5.00;1.33;;;;;13.18;59.36;99617.72;5077218;27;45488;-67
2021/12/28 14:47:03;;;;;;;;;0.00;0.00;;;;;13.17;59.00;99610.75;5075302;27;45626;-67
2021/12/28 14:49:33;;;;;;;;;2.00;1.33;;;;;13.10;58.46;99614.47;5075100;28;46052;-68
2021/12/28 14:52:09;;;;;;;;;3.00;1.67;;;;;13.11;58.20;99626.69;5076206;28;45393;-70
2021/12/28 14:54:35;;;;;;;;;9.67;3.00;;;;;13.02;58.26;99629.53;5076496;27;45574;-69
2021/12/28 14:57:01;;;;;;;;;4.00;2.00;;;;;13.03;58.62;99633.91;5076712;27;45413;-70
2021/12/28 14:59:27;;;;;;;;;2.67;1.00;;;;;13.00;58.40;99631.34;5077018;27;45366;-68
2021/12/28 15:01:54;;;;;;;;;3.33;2.00;;;;;12.92;59.27;99627.16;5075919;28;45646;-72
2021/12/28 15:04:20;;;;;;;;;8.33;2.00;;;;;13.01;59.37;99639.22;5076881;27;45437;-68
2021/12/28 15:07:00;;;;;;;;;2.67;2.00;;;;;12.97;60.26;99634.06;5076348;28;45392;-69
2021/12/28 15:09:37;;;;;;;;;3.00;1.33;;;;;12.96;59.75;99642.88;5075145;28;46234;-68
2021/12/28 15:12:06;;;;;;;;;4.00;1.67;;;;;12.91;59.94;99641.22;5075374;28;45331;-66
2021/12/28 15:14:33;;;;;;;;;3.00;1.00;;;;;12.90;59.72;99633.34;5075308;28;45347;-69
2021/12/28 15:17:01;;;;;;;;;2.00;0.00;;;;;12.85;60.02;99630.84;5075878;28;45460;-69
2021/12/28 15:19:31;;;;;;;;;3.00;1.67;;;;;12.78;59.96;99620.53;5074778;27;45814;-69
2021/12/28 15:21:59;;;;;;;;;3.67;1.67;;;;;12.77;59.86;99611.78;5056660;28;45710;-68
2021/12/28 15:24:26;;;;;;;;;4.33;2.00;;;;;12.86;59.68;99645.72;5075114;27;45844;-69
2021/12/28 15:26:52;;;;;;;;;2.67;2.33;;;;;12.88;60.25;99659.69;5075426;27;45436;-70
2021/12/28 15:29:21;;;;;;;;;5.33;1.00;;;;;12.82;59.40;99646.69;5075158;28;45701;-69
2021/12/28 15:31:47;;;;;;;;;7.33;2.00;;;;;12.83;59.04;99650.16;5072904;28;45385;-70
2021/12/28 15:34:14;;;;;;;;;9.00;2.33;;;;;12.85;58.54;99656.25;5074736;27;45347;-71
2021/12/28 15:36:40;;;;;;;;;2.00;2.00;;;;;12.86;59.08;99669.38;5077414;28;45344;-70
2021/12/28 15:39:07;;;;;;;;;2.33;1.00;;;;;12.83;58.51;99652.78;5075847;28;46533;-69
2021/12/28 15:41:33;;;;;;;;;3.67;2.33;;;;;12.78;58.00;99649.44;5074579;28;45705;-69
2021/12/28 15:43:59;;;;;;;;;8.67;3.67;;;;;12.77;58.22;99661.72;5075009;27;45346;-70
2021/12/28 15:46:25;;;;;;;;;6.67;2.00;;;;;12.88;57.73;99679.81;5075110;28;45496;-71
2021/12/28 15:48:52;;;;;;;;;4.00;2.00;;;;;12.89;58.26;99674.53;5067298;27;46352;-69
2021/12/28 15:51:18;;;;;;;;;2.67;2.00;;;;;12.90;57.41;99680.66;5073259;28;45441;-68
2021/12/28 15:53:43;;;;;;;;;7.33;3.00;;;;;12.90;58.75;99685.91;5073535;28;45531;-70
2021/12/28 15:56:09;;;;;;;;;5.00;2.33;;;;;12.80;57.59;99682.66;5073207;28;45497;-69
2021/12/28 15:58:36;;;;;;;;;3.00;2.67;;;;;12.87;57.74;99707.88;5072694;28;46630;-69
2021/12/28 16:01:02;;;;;;;;;4.00;1.00;;;;;12.87;57.29;99712.28;5074227;28;45409;-71
2021/12/28 16:03:29;;;;;;;;;7.67;2.67;;;;;12.86;57.29;99700.00;5073272;28;45617;-70
2021/12/28 16:05:56;;;;;;;;;6.67;2.67;;;;;12.83;57.05;99711.47;5073105;28;45525;-71
2021/12/28 16:08:21;;;;;;;;;3.67;1.33;;;;;12.82;57.26;99717.63;5072737;28;45424;-71
2021/12/28 16:10:47;;;;;;;;;8.00;3.33;;;;;12.86;56.59;99739.44;5053842;28;45416;-71
2021/12/28 16:13:13;;;;;;;;;2.00;2.00;;;;;12.84;57.22;99721.09;5076946;28;45362;-70
2021/12/28 16:15:39;;;;;;;;;8.33;2.67;;;;;12.85;57.42;99738.56;5073515;28;45482;-71
2021/12/28 16:18:05;;;;;;;;;3.00;2.67;;;;;12.88;56.54;99749.03;5073502;28;45710;-71
2021/12/28 16:20:31;;;;;;;;;7.67;2.00;;;;;12.83;56.29;99739.50;5055663;28;45816;-70
2021/12/28 16:22:57;;;;;;;;;3.67;1.67;;;;;12.39;56.60;99668.72;5073931;27;45353;-69
2021/12/28 16:25:23;;;;;;;;;2.33;1.00;;;;;12.86;56.07;99755.19;5059447;27;45619;-70
2021/12/28 16:27:48;;;;;;;;;2.67;2.00;;;;;12.84;57.94;99762.28;5059899;28;47847;-70
2021/12/28 16:30:23;;;;;;;;;2.00;2.00;;;;;12.83;56.35;99757.91;5077297;28;45340;-71
2021/12/28 16:32:49;;;;;;;;;2.00;1.00;;;;;12.77;57.18;99742.31;5074156;28;45301;-69
2021/12/28 16:35:14;;;;;;;;;7.33;3.00;;;;;12.85;56.92;99772.75;5073951;28;45335;-68
2021/12/28 16:37:40;;;;;;;;;3.67;2.00;;;;;12.82;57.34;99762.31;5073477;28;45502;-69
2021/12/28 16:40:06;;;;;;;;;2.00;2.00;;;;;12.71;59.71;99759.91;5073075;28;45540;-67
2021/12/28 16:42:32;;;;;;;;;3.00;1.00;;;;;12.91;56.54;99792.78;5074181;27;45335;-69
2021/12/28 16:44:57;;;;;;;;;4.33;3.00;;;;;12.82;55.88;99770.19;5074896;28;45441;-70
2021/12/28 16:47:23;;;;;;;;;3.67;2.33;;;;;12.86;55.90;99784.09;5070779;28;45530;-72
2021/12/28 16:49:48;;;;;;;;;4.00;1.67;;;;;12.86;56.47;99789.38;5072861;28;45453;-72
2021/12/28 16:52:14;;;;;;;;;3.33;3.00;;;;;12.93;55.73;99811.97;5073928;28;45481;-68
2021/12/28 16:54:44;;;;;;;;;7.00;1.33;;;;;12.84;55.16;99801.69;5073639;28;45581;-69
2021/12/28 16:57:14;;;;;;;;;2.00;1.33;;;;;12.85;55.19;99822.66;5071288;27;46321;-70
2021/12/28 16:59:40;;;;;;;;;8.67;2.33;;;;;12.90;55.48;99815.53;5072626;28;45462;-71
2021/12/28 17:02:05;;;;;;;;;4.67;2.67;;;;;12.86;55.55;99821.78;5072613;28;45373;-70
2021/12/28 17:04:32;;;;;;;;;3.33;2.33;;;;;12.89;54.83;99815.59;5072517;28;45742;-68
2021/12/28 17:06:57;;;;;;;;;5.00;1.67;;;;;12.83;55.63;99806.06;5072134;28;45469;-70
2021/12/28 17:09:24;;;;;;;;;4.67;3.00;;;;;12.86;55.45;99811.28;5071815;28;45338;-69
2021/12/28 17:11:50;;;;;;;;;2.33;2.33;;;;;12.84;55.64;99817.47;5074611;28;45464;-72
2021/12/28 17:14:15;;;;;;;;;4.00;3.00;;;;;12.83;55.41;99826.22;5058118;28;45430;-69
2021/12/28 17:16:41;;;;;;;;;6.67;2.00;;;;;12.84;54.82;99833.25;5075159;28;46120;-69
2021/12/28 17:19:06;;;;;;;;;4.00;2.00;;;;;12.82;55.46;99832.41;5057082;28;45459;-69
2021/12/28 17:21:36;;;;;;;;;5.33;2.00;;;;;12.81;55.47;99854.31;5075854;28;45305;-70
2021/12/28 17:24:01;;;;;;;;;8.33;3.00;;;;;12.77;55.62;99826.38;5077032;28;45604;-69
2021/12/28 17:26:27;;;;;;;;;4.00;2.67;;;;;12.53;55.55;99807.63;5076452;28;45425;-71
2021/12/28 17:28:53;;;;;;;;;5.00;2.00;;;;;12.65;56.12;99835.38;5076880;28;45782;-69
2021/12/28 17:31:19;;;;;;;;;4.00;3.00;;;;;12.68;54.95;99844.06;5077215;28;45695;-69
2021/12/28 17:33:44;;;;;;;;;7.00;3.00;;;;;12.62;55.29;99844.16;5077020;28;46075;-69
2021/12/28 17:36:10;;;;;;;;;5.67;2.67;;;;;12.49;56.02;99821.69;5076242;28;46216;-71
2021/12/28 17:38:37;;;;;;;;;6.33;4.67;;;;;12.71;56.04;99838.72;5075638;28;45531;-70
2021/12/28 17:41:04;;;;;;;;;4.00;1.00;;;;;12.71;55.83;99841.34;5075870;28;45534;-69
2021/12/28 17:43:30;;;;;;;;;6.00;2.00;;;;;12.70;55.52;99862.44;5075554;28;45516;-68
2021/12/28 17:45:57;;;;;;;;;6.00;2.67;;;;;12.52;55.61;99826.88;5075362;28;45475;-70
2021/12/28 17:48:23;;;;;;;;;1.33;1.00;;;;;12.68;55.95;99853.72;5075740;28;45386;-70
2021/12/28 17:50:49;;;;;;;;;5.00;3.00;;;;;12.69;55.68;99865.94;5075365;28;45334;-70
2021/12/28 17:53:16;;;;;;;;;6.67;2.00;;;;;12.42;56.83;99820.94;5075705;28;45362;-71
2021/12/28 17:55:41;;;;;;;;;5.00;2.00;;;;;12.68;55.80;99869.47;5074872;28;45503;-71
2021/12/28 17:58:08;;;;;;;;;6.33;3.00;;;;;12.65;55.87;99865.16;5074643;28;45588;-71
2021/12/28 18:00:40;;;;;;;;;3.00;3.00;;;;;12.48;56.18;99860.22;5076158;28;45405;-69
2021/12/28 18:03:10;;;;;;;;;8.33;3.00;;;;;12.58;55.47;99876.69;5082820;27;45685;-70
2021/12/28 18:05:41;;;;;;;;;3.33;1.33;;;;;12.59;55.73;99878.38;5074539;28;46425;-70
2021/12/28 18:08:07;;;;;;;;;4.33;3.00;;;;;12.61;55.76;99891.50;5073967;28;45751;-70
2021/12/28 18:10:36;;;;;;;;;2.67;2.00;;;;;12.61;56.17;99886.25;5075852;28;45614;-70
2021/12/28 18:13:02;;;;;;;;;7.00;2.33;;;;;12.61;56.50;99894.13;5075212;28;46620;-72
2021/12/28 18:15:28;;;;;;;;;5.33;3.33;;;;;12.64;56.60;99901.94;5075008;28;46021;-74
2021/12/28 18:17:53;;;;;;;;;5.33;3.33;;;;;12.51;56.10;99881.19;5090377;27;45520;-72
2021/12/28 18:20:20;;;;;;;;;5.67;3.67;;;;;12.67;56.14;99901.88;5075017;28;45560;-70
2021/12/28 18:22:45;;;;;;;;;6.67;3.67;;;;;12.65;55.72;99912.44;5065254;27;45545;-70
2021/12/28 18:25:19;;;;;;;;;7.67;3.00;;;;;12.64;55.93;99931.69;5074462;28;45424;-71
2021/12/28 18:27:46;;;;;;;;;6.33;1.33;;;;;12.54;56.35;99914.41;5074842;28;45393;-73
2021/12/28 18:30:13;;;;;;;;;6.33;2.00;;;;;12.66;56.21;99956.19;5056340;28;45572;-69
2021/12/28 18:32:58;;;;;;;;;4.67;2.00;;;;;12.65;56.09;99943.97;5074480;28;45511;-71
2021/12/28 18:35:28;;;;;;;;;6.00;4.33;;;;;12.65;55.72;99953.63;5076280;28;45445;-72
2021/12/28 18:37:54;;;;;;;;;7.00;2.33;;;;;12.65;56.43;99964.13;5078753;28;45331;-71
2021/12/28 18:40:22;;;;;;;;;1.00;1.00;;;;;12.67;56.73;99970.19;5078407;28;45381;-70
2021/12/28 18:42:48;;;;;;;;;6.67;1.67;;;;;12.63;56.20;99973.78;5075742;28;45517;-69
2021/12/28 18:45:14;;;;;;;;;7.00;3.00;;;;;12.68;56.29;99979.81;5073922;28;46423;-72
2021/12/28 18:47:41;;;;;;;;;7.00;4.00;;;;;12.62;55.97;99972.91;5074492;28;45605;-74
2021/12/28 18:50:07;;;;;;;;;4.67;2.67;;;;;12.72;56.45;99977.09;5056398;28;45402;-68
2021/12/28 18:52:33;;;;;;;;;7.00;4.00;;;;;12.72;56.14;99982.34;5074172;28;45285;-69
2021/12/28 18:54:58;;;;;;;;;5.67;3.00;;;;;12.71;56.54;99980.59;5074274;28;45570;-73
2021/12/28 18:57:24;;;;;;;;;7.67;4.67;;;;;12.66;56.41;99974.56;5074955;28;45406;-69
2021/12/28 18:59:50;;;;;;;;;6.67;4.00;;;;;12.68;57.12;99975.41;5078519;28;45401;-70
2021/12/28 19:02:15;;;;;;;;;6.67;4.67;;;;;12.75;56.52;99985.81;5075358;28;45481;-73
2021/12/28 19:04:41;;;;;;;;;5.33;5.00;;;;;12.75;57.13;99993.72;5074818;28;45521;-71
2021/12/28 19:07:06;;;;;;;;;8.33;2.00;;;;;12.72;56.59;100003.38;5077475;28;45446;-69
2021/12/28 19:09:33;;;;;;;;;7.00;5.33;;;;;12.72;59.77;99992.88;5079433;28;45514;-71
2021/12/28 19:11:59;;;;;;;;;7.33;2.00;;;;;12.59;57.33;99979.97;5075917;27;45377;-70
2021/12/28 19:14:29;;;;;;;;;4.67;3.33;;;;;12.79;57.03;100005.88;5075432;27;46693;-74
2021/12/28 19:16:56;;;;;;;;;4.00;2.00;;;;;12.48;56.82;99975.78;5077926;28;45216;-72
2021/12/28 19:19:21;;;;;;;;;7.00;3.00;;;;;12.45;57.25;99974.97;5075005;28;45742;-73
2021/12/28 19:21:47;;;;;;;;;7.00;3.00;;;;;12.71;56.59;100027.91;5074984;27;45353;-71
2021/12/28 19:24:12;;;;;;;;;6.00;3.67;;;;;12.74;57.22;100037.50;5074693;28;46598;-72
2021/12/28 19:26:38;;;;;;;;;3.00;3.00;;;;;12.73;57.48;100044.50;5074151;27;45525;-74
2021/12/28 19:29:05;;;;;;;;;6.33;3.00;;;;;12.72;56.85;100048.03;5068570;28;45532;-73
2021/12/28 19:31:31;;;;;;;;;3.33;3.00;;;;;12.72;56.53;100055.06;5073866;28;45375;-73
2021/12/28 19:33:57;;;;;;;;;7.00;3.00;;;;;12.71;56.80;100051.56;5060751;28;46297;-70
2021/12/28 19:36:23;;;;;;;;;6.67;4.00;;;;;12.66;57.37;100042.03;5043006;28;45571;-70
2021/12/28 19:38:50;;;;;;;;;5.67;3.00;;;;;12.70;57.66;100056.84;5072285;28;45568;-70
2021/12/28 19:41:16;;;;;;;;;6.67;3.67;;;;;12.62;57.39;100048.22;5073035;28;45442;-71
2021/12/28 19:43:43;;;;;;;;;6.33;3.00;;;;;12.66;57.51;100069.16;5070828;28;46890;-71
2021/12/28 19:46:09;;;;;;;;;8.67;3.33;;;;;12.62;57.48;100072.72;5073295;28;45718;-74
2021/12/28 19:48:35;;;;;;;;;6.00;4.00;;;;;12.66;57.68;100077.03;5073435;28;45433;-71
2021/12/28 19:51:04;;;;;;;;;7.33;3.00;;;;;12.66;58.32;100081.44;5073378;28;45418;-71
2021/12/28 19:53:32;;;;;;;;;6.00;4.00;;;;;12.48;57.68;100057.22;5073111;28;48300;-69
2021/12/28 19:55:57;;;;;;;;;5.33;5.33;;;;;12.68;57.96;100087.53;5077753;28;45445;-70
2021/12/28 19:58:24;;;;;;;;;9.00;3.00;;;;;12.41;57.94;100047.72;5078659;27;45538;-68
2021/12/28 20:00:51;;;;;;;;;5.00;0.00;;;;;12.63;57.80;100082.34;5079207;28;45479;-70
2021/12/28 20:03:17;;;;;;;;;2.67;2.00;;;;;12.61;57.81;100099.91;5076787;28;46658;-70
2021/12/28 20:05:44;;;;;;;;;9.00;3.00;;;;;12.61;57.95;100102.53;5074632;28;45709;-68
2021/12/28 20:08:12;;;;;;;;;3.00;1.67;;;;;12.58;58.38;100105.22;5061760;28;45382;-72
2021/12/28 20:10:40;;;;;;;;;3.67;3.67;;;;;12.63;57.90;100121.75;5055106;28;45717;-69
2021/12/28 20:13:06;;;;;;;;;3.67;2.33;;;;;12.64;59.23;100122.63;5054654;28;46147;-71
2021/12/28 20:15:34;;;;;;;;;6.67;4.00;;;;;12.63;57.70;100129.66;5063795;28;45434;-69
2021/12/28 20:18:01;;;;;;;;;3.00;3.00;;;;;12.66;58.00;100129.59;5056777;28;45433;-72
2021/12/28 20:20:29;;;;;;;;;7.67;3.00;;;;;12.67;57.43;100140.97;5059955;28;45346;-71
2021/12/28 20:22:55;;;;;;;;;5.00;3.00;;;;;12.66;57.61;100140.09;5055917;28;45455;-70
2021/12/28 20:25:25;;;;;;;;;8.00;3.00;;;;;12.66;57.88;100144.50;5053598;28;45517;-70
2021/12/28 20:27:52;;;;;;;;;8.00;1.33;;;;;12.64;57.98;100141.88;5054437;28;45454;-70
2021/12/28 20:30:22;;;;;;;;;2.67;2.33;;;;;12.59;58.35;100164.72;5055259;28;45565;-72
2021/12/28 20:33:02;;;;;;;;;6.00;2.33;;;;;12.64;57.88;100177.81;5055746;27;46024;-69
2021/12/28 20:35:29;;;;;;;;;8.67;3.67;;;;;12.59;58.46;100166.50;5036114;28;45603;-70
2021/12/28 20:37:55;;;;;;;;;3.67;2.33;;;;;12.51;58.12;100156.13;5053977;28;45889;-73
2021/12/28 20:40:21;;;;;;;;;4.67;4.00;;;;;12.55;58.46;100162.16;5057065;28;45578;-68
2021/12/28 20:42:47;;;;;;;;;9.00;3.67;;;;;12.64;58.71;100183.06;5056385;28;46635;-69
2021/12/28 20:45:17;;;;;;;;;4.00;3.00;;;;;12.62;58.22;100179.56;5058526;28;45530;-71
2021/12/28 20:47:46;;;;;;;;;8.33;3.00;;;;;12.60;58.39;100187.50;5066608;28;45363;-75
2021/12/28 20:50:16;;;;;;;;;9.67;3.33;;;;;12.63;58.62;100192.69;5064121;27;45171;-71
2021/12/28 20:52:46;;;;;;;;;9.67;3.00;;;;;12.59;58.39;100183.13;5058720;28;46158;-76
2021/12/28 20:55:18;;;;;;;;;4.00;4.00;;;;;12.64;59.01;100210.19;5059099;28;45477;-71
2021/12/28 20:57:48;;;;;;;;;7.00;3.00;;;;;12.51;59.00;100190.25;5058589;28;45362;-69
2021/12/28 21:00:21;;;;;;;;;7.00;2.00;;;;;12.52;59.26;100189.34;5062009;28;45529;-70
2021/12/28 21:02:47;;;;;;;;;8.00;3.67;;;;;12.62;59.02;100205.84;5061330;28;46183;-71
2021/12/28 21:05:13;;;;;;;;;6.67;3.67;;;;;12.61;58.80;100212.88;5061157;28;45595;-71
2021/12/28 21:07:40;;;;;;;;;7.67;5.33;;;;;12.60;59.28;100207.63;5058331;28;45338;-73
2021/12/28 21:10:10;;;;;;;;;5.00;2.33;;;;;12.59;59.26;100206.75;5077959;28;45885;-69
2021/12/28 21:12:37;;;;;;;;;3.67;3.00;;;;;12.56;59.22;100198.06;5066852;27;45502;-72
2021/12/28 21:15:04;;;;;;;;;8.67;3.33;;;;;12.54;59.40;100202.47;5057812;28;45370;-71
2021/12/28 21:17:30;;;;;;;;;8.33;5.33;;;;;12.59;59.22;100206.75;5061363;28;45244;-71
2021/12/28 21:19:56;;;;;;;;;6.33;3.67;;;;;12.39;59.80;100177.31;5061564;28;45553;-70
2021/12/28 21:22:24;;;;;;;;;7.33;2.67;;;;;12.57;60.09;100210.31;5059938;28;45422;-71
2021/12/28 21:24:52;;;;;;;;;2.33;2.33;;;;;12.55;59.87;100226.09;5057783;28;45607;-70
2021/12/28 21:27:27;;;;;;;;;7.00;2.67;;;;;12.57;59.23;100228.69;5057189;28;45384;-69
2021/12/28 21:29:53;;;;;;;;;4.67;4.67;;;;;12.60;60.16;100240.03;5038491;28;45475;-73
2021/12/28 21:32:19;;;;;;;;;7.33;3.33;;;;;12.60;60.17;100245.31;5058037;27;45647;-72
2021/12/28 21:34:46;;;;;;;;;9.33;3.33;;;;;12.35;59.35;100199.25;5061449;28;45630;-72
2021/12/28 21:37:16;;;;;;;;;3.00;3.00;;;;;12.61;59.93;100248.78;5061932;27;45514;-76
2021/12/28 21:39:43;;;;;;;;;8.33;3.67;;;;;12.57;60.01;100258.44;5061826;28;45384;-70
2021/12/28 21:42:10;;;;;;;;;5.00;2.00;;;;;12.47;60.02;100231.44;5056242;28;45488;-71
2021/12/28 21:44:37;;;;;;;;;4.67;3.33;;;;;12.43;60.09;100236.75;5057134;28;45488;-70
2021/12/28 21:47:07;;;;;;;;;3.00;2.67;;;;;12.58;60.00;100256.72;5059806;28;45399;-68
2021/12/28 21:49:33;;;;;;;;;8.67;4.00;;;;;12.57;59.72;100253.19;5061506;28;45458;-74
2021/12/28 21:51:59;;;;;;;;;11.33;3.67;;;;;12.56;59.78;100258.50;5077375;27;45323;-70
2021/12/28 21:54:24;;;;;;;;;5.00;4.00;;;;;12.48;59.93;100248.97;5075886;27;45594;-70
2021/12/28 21:56:54;;;;;;;;;6.67;3.00;;;;;12.54;60.03;100261.13;5077309;27;45657;-71
2021/12/28 21:59:21;;;;;;;;;5.25;3.75;;;;;12.52;60.79;100262.91;5063854;28;45563;-70
2021/12/28 22:01:48;;;;;;;;;6.00;2.00;;;;;12.41;60.24;100251.66;5078572;28;46338;-71
2021/12/28 22:04:15;;;;;;;;;7.25;5.00;;;;;12.48;60.34;100272.59;5061289;28;45462;-74
2021/12/28 22:06:41;;;;;;;;;5.33;3.67;;;;;12.50;60.24;100277.81;5071037;28;45444;-69
2021/12/28 22:09:07;;;;;;;;;6.00;3.33;;;;;12.50;60.52;100290.94;5076569;28;45377;-70
2021/12/28 22:11:34;;;;;;;;;10.67;3.33;;;;;12.49;60.48;100276.09;5076043;27;45824;-70
2021/12/28 22:14:00;;;;;;;;;7.00;3.00;;;;;12.38;61.00;100263.09;5076037;28;45919;-70
2021/12/28 22:16:26;;;;;;;;;7.50;2.75;;;;;12.39;60.73;100264.84;5076265;28;45603;-73
2021/12/28 22:18:55;;;;;;;;;6.33;2.00;;;;;12.41;60.68;100265.69;5077232;27;45772;-74
2021/12/28 22:21:24;;;;;;;;;5.33;2.67;;;;;12.41;60.83;100284.06;5079909;28;45389;-72
2021/12/28 22:23:52;;;;;;;;;5.00;2.33;;;;;12.38;61.43;100280.59;5078861;27;45511;-76
2021/12/28 22:26:20;;;;;;;;;3.00;2.00;;;;;12.30;62.09;100275.47;5075495;28;45970;-76
2021/12/28 22:28:46;;;;;;;;;2.67;2.33;;;;;12.39;61.00;100292.88;5074644;27;46194;-69
2021/12/28 22:31:14;;;;;;;;;7.75;3.50;;;;;12.20;61.82;100279.97;5075500;27;46254;-72
2021/12/28 22:33:43;;;;;;;;;9.67;4.00;;;;;12.36;61.42;100298.13;5077871;27;45596;-70
2021/12/28 22:36:10;;;;;;;;;6.33;3.00;;;;;12.32;61.47;100285.97;5080062;28;45402;-69
2021/12/28 22:38:37;;;;;;;;;2.67;2.33;;;;;12.21;61.41;100271.19;5080149;27;45402;-71
2021/12/28 22:41:05;;;;;;;;;5.00;3.00;;;;;12.25;61.95;100290.41;5076913;27;45773;-71
2021/12/28 22:43:31;;;;;;;;;9.25;4.25;;;;;12.29;61.58;100299.97;5069364;28;45684;-69
2021/12/28 22:46:01;;;;;;;;;3.33;3.00;;;;;12.29;61.35;100300.84;5076953;28;45373;-74
2021/12/28 22:48:27;;;;;;;;;3.33;3.00;;;;;12.14;62.07;100261.63;5078779;27;45566;-72
2021/12/28 22:51:09;;;;;;;;;6.00;3.00;;;;;12.29;61.65;100297.34;5074506;28;46172;-70
2021/12/28 22:53:35;;;;;;;;;11.75;4.00;;;;;12.29;61.21;100306.09;5075541;28;45760;-74
2021/12/28 22:56:10;;;;;;;;;8.67;4.00;;;;;12.20;61.97;100286.97;5078504;27;45515;-74
2021/12/28 22:58:38;;;;;;;;;2.67;2.33;;;;;12.24;61.96;100294.78;5078591;28;45623;-74
2021/12/28 23:01:09;;;;;;;;;8.67;2.67;;;;;12.28;61.25;100303.50;5074776;28;46155;-74
2021/12/28 23:03:38;;;;;;;;;3.00;3.00;;;;;12.28;61.78;100296.47;5070118;28;45543;-73
2021/12/28 23:06:10;;;;;;;;;9.33;2.67;;;;;12.28;61.81;100299.09;5080104;27;45424;-75
2021/12/28 23:08:38;;;;;;;;;5.00;1.00;;;;;12.29;61.65;100300.84;5072890;28;45458;-71
2021/12/28 23:11:05;;;;;;;;;8.67;3.00;;;;;12.25;62.05;100308.78;5073093;28;45524;-74
2021/12/28 23:13:34;;;;;;;;;4.33;2.00;;;;;12.29;62.00;100313.09;5076156;27;45472;-74
2021/12/28 23:16:01;;;;;;;;;6.00;3.00;;;;;12.29;62.20;100318.34;5077388;27;45886;-73
2021/12/28 23:18:27;;;;;;;;;4.67;3.00;;;;;12.30;61.74;100315.72;5076336;28;45404;-74
2021/12/28 23:20:55;;;;;;;;;3.33;2.00;;;;;12.31;61.91;100324.44;5074082;28;45558;-71
2021/12/28 23:23:21;;;;;;;;;7.67;5.33;;;;;12.29;61.89;100324.50;5075414;28;45543;-77
2021/12/28 23:25:48;;;;;;;;;4.00;3.00;;;;;11.85;62.10;100264.56;5077510;28;45449;-74
2021/12/28 23:28:18;;;;;;;;;5.75;3.50;;;;;12.27;62.32;100341.16;5078013;28;45271;-75
2021/12/28 23:30:47;;;;;;;;;11.00;4.00;;;;;12.04;62.47;100318.63;5078000;27;46311;-72
2021/12/28 23:33:13;;;;;;;;;4.75;3.50;;;;;12.26;62.50;100363.03;5077376;28;45539;-72
2021/12/28 23:35:40;;;;;;;;;4.25;4.25;;;;;12.27;62.56;100359.53;5078254;28;45223;-72
2021/12/28 23:38:07;;;;;;;;;6.00;4.00;;;;;12.14;62.37;100344.78;5078342;27;46693;-71
2021/12/28 23:40:36;;;;;;;;;5.50;3.75;;;;;12.25;61.94;100383.16;5075903;28;46262;-72
2021/12/28 23:43:03;;;;;;;;;3.33;3.00;;;;;12.21;62.24;100381.44;5077740;28;45524;-68
2021/12/28 23:45:29;;;;;;;;;8.00;5.00;;;;;12.23;61.84;100366.56;5077526;28;45562;-69
2021/12/28 23:47:55;;;;;;;;;4.00;4.00;;;;;12.22;62.61;100366.56;5075749;27;45470;-70
2021/12/28 23:50:23;;;;;;;;;7.33;3.00;;;;;12.14;62.27;100348.28;5073101;28;45302;-69
2021/12/28 23:52:50;;;;;;;;;13.25;7.25;;;;;12.23;62.42;100347.31;5072779;28;45441;-69
2021/12/28 23:55:19;;;;;;;;;11.75;3.25;;;;;12.23;61.90;100360.44;5072820;28;45715;-71
2021/12/28 23:57:45;;;;;;;;;12.50;3.75;;;;;12.21;62.56;100354.34;5072938;28;45594;-69
